Amkor Technology Inc (AMKR) Latest Bloomsberg Price


Mffais Ranking #731 Overall / #7 Industry
Industry: Semiconductor Mfg

Number of Companies: 113 (Ranking #1488 Overall/#10 Industry)
Inflow: $ 32,872 (K) (Ranking #1519 Overall/#11 Industry)
Outflow: $ -30,579 (K)
Mffais Flow: $ 2,293 (K) (Ranking #731 Overall/#7 Industry)


Receive a FREE weekly executive review of stocks moving into the top 10, taking the top industy spot or moving up within their industry. Sent directly to your Inbox every Saturday. Sign up today and get last week's review immediately sent to you.

We value and respect your privacy. Please read our Terms and Conditions which states our firm commitment to your privacy. Your email address will not be shared with a third party, nor will it be sold or used for purposes other than subscription for the weekly review.

Owner CPOR Shares Action Qty Chg Invested (K) Total Current Value (K)
Bogle Investment Management L P De 2016-09-30 1,051,994 New Holding 1,051,994 $ 6,564 $ 6,564
Dimensional Fund Advisors Lp 2016-09-30 10,500,568 Added More 1,042,303 $ 6,503 $ 65,523
Highbridge Capital Management Llc 2016-09-30 553,797 Added More 462,982 $ 2,889 $ 3,455
Jacobs Levy Equity Management Inc 2016-09-30 436,838 Added More 402,838 $ 2,513 $ 2,725
Connor Clark Lunn Investment Management Ltd 2016-09-30 776,965 Added More 313,815 $ 1,958 $ 4,848
Spark Investment Management Llc 2016-09-30 228,200 New Holding 228,200 $ 1,423 $ 1,423
Axa 2016-09-30 226,260 New Holding 226,260 $ 1,411 $ 1,411
Clarivest Asset Management Llc 2016-09-30 145,965 New Holding 145,965 $ 910 $ 910
Marshall Wace Llp 2016-09-30 119,009 New Holding 119,009 $ 742 $ 742
Emerald Acquisition Ltd 2016-09-30 181,100 Added More 100,700 $ 628 $ 1,130
Tfs Capital Llc 2016-09-30 88,298 New Holding 88,298 $ 550 $ 550
Jane Street Group Llc 2016-09-30 100,200 Added More 86,200 $ 537 $ 625
Algert Global Llc 2016-09-30 80,662 New Holding 80,662 $ 503 $ 503
Engineers Gate Manager Lp 2016-09-30 103,526 Added More 78,541 $ 490 $ 646
Quantitative Investment Management Llc 2016-09-30 74,900 New Holding 74,900 $ 467 $ 467
Northern Trust Corp 2016-09-30 3,341,797 Added More 74,786 $ 466 $ 20,852
Dynamic Capital Management Ltd 2016-09-30 61,152 New Holding 61,152 $ 381 $ 381
Meeder Asset Management Inc 2016-09-30 56,588 New Holding 56,588 $ 353 $ 353
Simplex Trading Llc 2016-09-30 47,901 New Holding 47,901 $ 298 $ 298
Trexquant Investment Lp 2016-09-30 37,207 New Holding 37,207 $ 232 $ 232
Princeton Alpha Management Lp 2016-09-30 34,688 New Holding 34,688 $ 216 $ 216
Bayesian Capital Management Lp 2016-09-30 32,800 New Holding 32,800 $ 204 $ 204
Capital Fund Management S A 2016-09-30 29,700 New Holding 29,700 $ 185 $ 185
Clinton Group Inc 2016-09-30 27,430 New Holding 27,430 $ 171 $ 171
Sensato Investors Llc 2016-09-30 27,002 New Holding 27,002 $ 168 $ 168
Parkwood Llc 2016-09-30 26,156 New Holding 26,156 $ 163 $ 163
Squarepoint Ops Llc 2016-09-30 25,831 New Holding 25,831 $ 161 $ 161
Summit Securities Group Llc 2016-09-30 23,654 New Holding 23,654 $ 147 $ 147
Blackrock Inc 2016-09-30 70,394 Added More 23,637 $ 147 $ 439
Sg Americas Securities Llc 2016-09-30 23,058 New Holding 23,058 $ 143 $ 143
Rbf Capital Llc 2016-09-30 23,000 New Holding 23,000 $ 143 $ 143
Oshaughnessy Asset Management Llc 2016-09-30 21,533 New Holding 21,533 $ 134 $ 134
Chicago Equity Partners Llc 2016-09-30 19,890 New Holding 19,890 $ 124 $ 124
Westover Capital Advisors Llc 2016-09-30 18,487 New Holding 18,487 $ 115 $ 115
Tudor Investment Corp Et Al 2016-09-30 59,027 Added More 17,995 $ 112 $ 368
Cibc World Markets Inc 2016-09-30 17,228 New Holding 17,228 $ 107 $ 107
Peak6 Investments L P 2016-09-30 100,052 Added More 14,842 $ 92 $ 624
Grt Capital Partners L L C 2016-09-30 12,879 New Holding 12,879 $ 80 $ 80
Legal General Group Plc 2016-09-30 207,960 Added More 11,716 $ 73 $ 1,297
Integral Derivatives Llc 2016-09-30 11,600 New Holding 11,600 $ 72 $ 72
Cubist Systematic Strategies Llc 2016-09-30 21,211 Added More 11,047 $ 68 $ 132
Blackrock Japan Co Ltd 2016-09-30 6,806 New Holding 6,806 $ 42 $ 42
Blackrock Investment Management Llc 2016-09-30 412,398 Added More 4,935 $ 30 $ 2,573
Fox Run Management L L C 2016-09-30 26,400 Added More 2,600 $ 16 $ 164
New York State Common Retirement Fund 2016-09-30 201,770 Added More 2,397 $ 14 $ 1,259
Aperio Group Llc 2016-09-30 14,436 Added More 2,249 $ 14 $ 90
California State Teachers Retirement System 2016-09-30 211,977 Added More 2,000 $ 12 $ 1,322
Nationwide Fund Advisors 2016-09-30 603,324 Added More 1,721 $ 10 $ 3,764
Rhumbline Advisers 2016-09-30 125,189 Added More 1,650 $ 10 $ 781
Martingale Asset Management L P 2016-09-30 191,228 Added More 1,560 $ 9 $ 1,193
Ladenburg Thalmann Financial Services Inc 2016-09-30 1,536 New Holding 1,536 $ 9 $ 9
Msi Financial Services Inc 2016-09-30 1,392 New Holding 1,392 $ 8 $ 8
Springbok Capital Management Llc 2016-09-30 5,583 Added More 1,015 $ 6 $ 34
Smithfield Trust Co 2016-09-30 6,000 Added More 1,000 $ 6 $ 37
Zurcher Kantonalbank Zurich Cantonalbank 2016-09-30 3,819 Added More 726 $ 4 $ 23
Pacad Investment Ltd 2016-09-30 7,500 Added More 700 $ 4 $ 46
Cutler Group Lp 2016-09-30 101,000 Added More 600 $ 3 $ 630
Thompson Davis Co Inc 2016-09-30 250 New Holding 250 $ 1 $ 1
Denali Advisors Llc 2016-09-30 451 Added More 181 $ 1 $ 2
Creative Planning 2016-09-30 110 New Holding 110 $ 0 $ 0
American International Group Inc 2016-09-30 57,734 Added More 88 $ 0 $ 360
Ifp Advisors Inc 2016-09-30 280 Added More 80 $ 0 $ 1
Adams Diversified Equity Fund Inc 2016-09-30 56,700 No Change 0 $ 0 $ 353
United Capital Financial Advisers Llc 2016-09-30 20,000 No Change 0 $ 0 $ 124
Brown Brothers Harriman Co 2016-09-30 2,985 No Change 0 $ 0 $ 18
Babson Capital Management Llc 2016-09-30 12,700 No Change 0 $ 0 $ 79
Next Financial Group Inc 2016-09-30 4,344 No Change 0 $ 0 $ 27
Amp Capital Investors Ltd 2016-09-30 14,500 No Change 0 $ 0 $ 90
Capital Impact Advisors Llc 2016-09-30 143,785 No Change 0 $ 0 $ 897
Financial Management Professionals Inc 2016-09-30 30 No Change 0 $ 0 $ 0
Piedmont Investment Advisors Llc 2016-09-30 356 Sold Some -75 $ -0 $ 2
Sterling Capital Management Llc 2016-09-30 106,195 Sold Some -204 $ -1 $ 662
Cipher Capital Lp 2016-09-30 59,319 Sold Some -208 $ -1 $ 370
Sei Investments Co 2016-09-30 0 Sold All -404 $ -2 $ 0
Tower Research Capital Llc Trc 2016-09-30 0 Sold All -600 $ -3 $ 0
Pnc Financial Services Group Inc 2016-09-30 311 Sold Some -742 $ -4 $ 1
Teachers Advisors Inc 2016-09-30 156,901 Sold Some -1,966 $ -12 $ 979
Hsbc Holdings Plc 2016-09-30 94,705 Sold Some -2,358 $ -14 $ 590
Proshare Advisors Llc 2016-09-30 10,864 Sold Some -2,423 $ -15 $ 67
Teacher Retirement System Of Texas 2016-09-30 11,601 Sold Some -3,438 $ -21 $ 72
Quantbot Technologies Lp 2016-09-30 0 Sold All -3,793 $ -23 $ 0
Zacks Investment Management 2016-09-30 103,403 Sold Some -5,874 $ -36 $ 645
Swiss National Bank 2016-09-30 171,000 Sold Some -6,200 $ -38 $ 1,067
Valley National Advisers Inc 2016-09-30 0 Sold All -7,000 $ -43 $ 0
Nomura Asset Management Co Ltd 2016-09-30 0 Sold All -7,300 $ -45 $ 0
Stevens Capital Management Lp 2016-09-30 0 Sold All -11,316 $ -70 $ 0
Hanson Doremus Investment Management 2016-09-30 168,383 Sold Some -11,740 $ -73 $ 1,050
Kcg Holdings Inc 2016-09-30 50,705 Sold Some -17,999 $ -112 $ 316
Panagora Asset Management Inc 2016-09-30 26,717 Sold Some -18,388 $ -114 $ 166
Spot Trading L L C 2016-09-30 0 Sold All -18,642 $ -116 $ 0
Horizon Kinetics Llc 2016-09-30 44,532 Sold Some -26,923 $ -168 $ 277
Airain Ltd 2016-09-30 0 Sold All -29,095 $ -181 $ 0
A R T Advisors Llc 2016-09-30 12,100 Sold Some -29,560 $ -184 $ 75
Walleye Trading Llc 2016-09-30 27,567 Sold Some -31,720 $ -197 $ 172
Strs Ohio 2016-09-30 90,200 Sold Some -33,400 $ -208 $ 562
Loews Corp 2016-09-30 60,000 Sold Some -40,000 $ -249 $ 374
Thrivent Financial For Lutherans 2016-09-30 149,940 Sold Some -42,780 $ -266 $ 935
Zebra Capital Management Llc 2016-09-30 38,440 Sold Some -44,200 $ -275 $ 239
Ontario Teachers Pension Plan Board 2016-09-30 0 Sold All -60,199 $ -375 $ 0
Dynamic Technology Lab Private Ltd 2016-09-30 0 Sold All -65,014 $ -405 $ 0
Cornerstone Capital Management Holdings Llc 2016-09-30 90,477 Sold Some -87,400 $ -545 $ 564
Vident Investment Advisory Llc 2016-09-30 162,165 Sold Some -89,554 $ -558 $ 1,011
Top Ace Asset Management Ltd 2016-09-30 0 Sold All -92,625 $ -577 $ 0
Secor Capital Advisors Lp 2016-09-30 345,226 Sold Some -142,106 $ -886 $ 2,154
Symmetry Peak Management Llc 2016-09-30 100,600 Sold Some -149,400 $ -932 $ 627
Qs Investors Llc 2016-09-30 562,766 Sold Some -169,571 $ -1,058 $ 3,511
Parametric Portfolio Associates Llc 2016-09-30 731,401 Sold Some -191,674 $ -1,196 $ 4,563
Gsa Capital Partners Llp 2016-09-30 15,995 Sold Some -257,600 $ -1,607 $ 99
Convergence Investment Partners Llc 2016-09-30 0 Sold All -304,296 $ -1,898 $ 0
Arbiter Partners Capital Management Llc 2016-09-30 0 Sold All -509,157 $ -3,177 $ 0
Bridgeway Capital Management Inc 2016-09-30 457,491 Sold Some -596,400 $ -3,721 $ 2,854
Brandywine Global Investment Management Llc 2016-09-30 0 Sold All -655,774 $ -4,092 $ 0
Walthausen Co Llc 2016-09-30 0 Sold All -1,131,393 $ -7,059 $ 0